createdAt,value
2018-09-01T00:00:20.309Z,5.00
2018-09-01T00:01:20.336Z,5.20
2018-09-01T00:02:20.391Z,4.20
2018-09-01T00:03:20.357Z,5.10
2018-09-01T00:04:20.381Z,7.10
2018-09-01T00:05:20.386Z,4.30
2018-09-01T00:06:20.420Z,6.10
2018-09-01T00:07:20.426Z,4.60
2018-09-01T00:08:20.437Z,6.80
2018-09-01T00:09:20.456Z,7.50
2018-09-01T00:10:20.460Z,5.60
2018-09-01T00:11:20.558Z,6.30
2018-09-01T00:12:20.492Z,6.80
2018-09-01T00:13:20.513Z,4.10
2018-09-01T00:14:20.543Z,4.40
2018-09-01T00:15:20.535Z,5.80
2018-09-01T00:16:20.620Z,7.20
2018-09-01T00:17:20.566Z,5.80
2018-09-01T00:18:20.589Z,6.30
2018-09-01T00:19:20.593Z,7.00
2018-09-01T00:20:20.613Z,6.90
2018-09-01T00:21:20.632Z,6.70
2018-09-01T00:22:20.640Z,4.70
2018-09-01T00:23:20.656Z,4.90
2018-09-01T00:24:20.674Z,7.00
2018-09-01T00:25:20.689Z,4.10
2018-09-01T00:26:20.698Z,6.10
2018-09-01T00:27:20.706Z,6.40
2018-09-01T00:28:20.723Z,4.20
2018-09-01T00:29:20.744Z,6.20
2018-09-01T00:30:20.764Z,6.80
2018-09-01T00:31:20.794Z,5.50
2018-09-01T00:32:20.791Z,6.50
2018-09-01T00:33:20.804Z,5.20
2018-09-01T00:34:20.811Z,4.80
2018-09-01T00:35:20.828Z,7.10
2018-09-01T00:36:20.845Z,6.00
2018-09-01T00:37:20.898Z,4.40
2018-09-01T00:38:21.176Z,7.20
2018-09-01T00:39:20.887Z,5.60
2018-09-01T00:40:20.904Z,4.90
2018-09-01T00:41:20.929Z,4.60
2018-09-01T00:42:20.931Z,6.10
2018-09-01T00:43:20.948Z,5.10
2018-09-01T00:44:20.961Z,6.00
2018-09-01T00:45:20.977Z,6.30
2018-09-01T00:46:20.990Z,5.70
2018-09-01T00:47:21.011Z,5.20
2018-09-01T00:48:21.024Z,5.10
2018-09-01T00:49:21.036Z,4.80
2018-09-01T00:50:21.050Z,6.20
2018-09-01T00:51:21.064Z,5.60
2018-09-01T00:52:21.094Z,5.90
2018-09-01T00:53:21.095Z,8.20
2018-09-01T00:54:21.117Z,7.50
2018-09-01T00:55:21.123Z,4.40
2018-09-01T00:56:21.142Z,4.30
2018-09-01T00:57:21.156Z,6.00
2018-09-01T00:58:21.182Z,6.20
2018-09-01T00:59:21.187Z,4.90
2018-09-01T01:00:21.219Z,3.90
2018-09-01T01:01:21.213Z,7.40
2018-09-01T01:02:21.230Z,6.90
2018-09-01T01:03:21.246Z,5.00
2018-09-01T01:04:21.579Z,4.20
2018-09-01T01:05:21.289Z,8.00
2018-09-01T01:06:21.293Z,5.60
2018-09-01T01:07:21.302Z,4.30
2018-09-01T01:08:21.318Z,5.90
2018-09-01T01:09:21.340Z,7.50
2018-09-01T01:10:21.347Z,5.40
2018-09-01T01:11:21.361Z,5.00
2018-09-01T01:12:21.378Z,6.20
2018-09-01T01:13:21.393Z,7.70
2018-09-01T01:14:21.421Z,6.00
2018-09-01T01:15:21.424Z,6.50
2018-09-01T01:16:21.436Z,7.40
2018-09-01T01:17:21.452Z,4.60
2018-09-01T01:18:21.467Z,6.40
2018-09-01T01:19:21.486Z,3.90
2018-09-01T01:20:21.503Z,7.00
2018-09-01T01:21:21.511Z,7.50
2018-09-01T01:22:21.528Z,6.50
2018-09-01T01:23:21.546Z,6.50
2018-09-01T01:24:21.555Z,5.70
2018-09-01T01:25:21.570Z,4.50
2018-09-01T01:26:21.583Z,6.60
2018-09-01T01:27:21.600Z,5.50
2018-09-01T01:28:21.612Z,5.00
2018-09-01T01:29:21.628Z,6.20
2018-09-01T01:30:21.653Z,5.00
2018-09-01T01:31:21.656Z,5.00
2018-09-01T01:32:21.674Z,7.40
2018-09-01T01:33:21.694Z,6.80
2018-09-01T01:34:21.697Z,6.20
2018-09-01T01:35:22.021Z,5.90
2018-09-01T01:36:21.756Z,5.40
2018-09-01T01:37:21.741Z,7.10
2018-09-01T01:38:21.755Z,6.20
2018-09-01T01:39:21.774Z,5.60
2018-09-01T01:40:21.785Z,6.60
2018-09-01T01:41:21.801Z,9.30
2018-09-01T01:42:21.813Z,6.30
2018-09-01T01:43:21.827Z,5.10
2018-09-01T01:44:21.881Z,8.30
2018-09-01T01:45:21.859Z,8.50
2018-09-01T01:46:21.868Z,9.80
2018-09-01T01:47:21.883Z,6.30
2018-09-01T01:48:21.899Z,6.90
2018-09-01T01:49:21.911Z,7.00
2018-09-01T01:50:21.925Z,5.60
2018-09-01T01:51:21.940Z,7.00
2018-09-01T01:52:21.952Z,6.20
2018-09-01T01:53:21.967Z,6.00
2018-09-01T01:54:21.988Z,6.30
2018-09-01T01:55:21.998Z,5.90
2018-09-01T01:56:22.010Z,5.50
2018-09-01T01:57:22.032Z,4.50
2018-09-01T01:58:22.038Z,8.00
2018-09-01T01:59:22.061Z,6.40
2018-09-01T02:00:22.065Z,5.60
2018-09-01T02:01:22.079Z,6.00
2018-09-01T02:02:22.095Z,7.80
2018-09-01T02:03:22.128Z,7.00
2018-09-01T02:04:22.145Z,8.10
2018-09-01T02:05:22.134Z,7.80
2018-09-01T02:06:22.150Z,7.20
2018-09-01T02:07:22.186Z,4.80
2018-09-01T02:08:22.184Z,8.00
2018-09-01T02:09:22.191Z,9.10
2018-09-01T02:10:22.206Z,6.80
2018-09-01T02:11:22.219Z,6.50
2018-09-01T02:12:22.234Z,5.40
2018-09-01T02:13:22.248Z,4.60
2018-09-01T02:14:22.276Z,9.10
2018-09-01T02:15:22.275Z,5.40
2018-09-01T02:16:22.291Z,5.20
2018-09-01T02:17:22.301Z,5.40
2018-09-01T02:18:22.313Z,4.80
2018-09-01T02:19:22.330Z,6.10
2018-09-01T02:20:22.344Z,4.40
2018-09-01T02:21:22.360Z,8.50
2018-09-01T02:22:22.371Z,6.60
2018-09-01T02:23:22.388Z,9.50
2018-09-01T02:24:22.398Z,6.50
2018-09-01T02:25:22.414Z,6.60
2018-09-01T02:26:22.428Z,6.00
2018-09-01T02:27:22.438Z,7.30
2018-09-01T02:28:22.453Z,8.40
2018-09-01T02:29:22.466Z,5.00
2018-09-01T02:30:22.479Z,8.80
2018-09-01T02:31:22.496Z,5.20
2018-09-01T02:32:22.512Z,9.10
2018-09-01T02:33:22.527Z,6.40
2018-09-01T02:34:22.534Z,5.90
2018-09-01T02:35:22.548Z,5.80
2018-09-01T02:36:22.564Z,6.80
2018-09-01T02:37:22.584Z,5.40
2018-09-01T02:38:22.592Z,7.30
2018-09-01T02:39:22.623Z,5.10
2018-09-01T02:40:22.655Z,5.00
2018-09-01T02:41:22.632Z,5.00
2018-09-01T02:42:22.645Z,6.80
2018-09-01T02:43:22.659Z,5.70
2018-09-01T02:44:22.675Z,6.80
2018-09-01T02:45:22.691Z,6.50
2018-09-01T02:46:22.702Z,6.70
2018-09-01T02:47:22.718Z,7.90
2018-09-01T02:48:22.729Z,7.60
2018-09-01T02:49:22.742Z,7.00
2018-09-01T02:50:22.766Z,7.30
2018-09-01T02:51:22.771Z,6.60
2018-09-01T02:52:22.784Z,6.10
2018-09-01T02:53:22.800Z,7.80
2018-09-01T02:54:22.814Z,8.20
2018-09-01T02:55:22.826Z,7.30
2018-09-01T02:56:22.839Z,5.80
2018-09-01T02:57:22.853Z,7.60
2018-09-01T02:58:22.867Z,7.40
2018-09-01T02:59:22.878Z,6.70
2018-09-01T03:00:22.897Z,7.80
2018-09-01T03:01:22.907Z,9.90
2018-09-01T03:02:22.920Z,5.40
2018-09-01T03:03:22.937Z,7.20
2018-09-01T03:04:22.952Z,9.20
2018-09-01T03:05:22.962Z,6.90
2018-09-01T03:06:22.976Z,5.80
2018-09-01T03:07:22.989Z,8.60
2018-09-01T03:08:23.006Z,9.00
2018-09-01T03:09:23.019Z,7.50
2018-09-01T03:10:23.031Z,6.00
2018-09-01T03:11:23.043Z,8.60
2018-09-01T03:12:23.058Z,7.00
2018-09-01T03:13:23.072Z,7.00
2018-09-01T03:14:23.134Z,6.80
2018-09-01T03:15:23.100Z,6.90
2018-09-01T03:16:23.113Z,7.00
2018-09-01T03:17:23.128Z,6.60
2018-09-01T03:18:23.144Z,8.60
2018-09-01T03:19:23.153Z,7.20
2018-09-01T03:20:23.168Z,8.10
2018-09-01T03:21:23.220Z,8.90
2018-09-01T03:22:23.194Z,8.20
2018-09-01T03:23:23.206Z,6.50
2018-09-01T03:24:23.232Z,6.60
2018-09-01T03:25:23.236Z,5.40
2018-09-01T03:26:23.247Z,7.50
2018-09-01T03:27:23.261Z,6.60
2018-09-01T03:28:23.275Z,6.60
2018-09-01T03:29:23.289Z,6.50
2018-09-01T03:30:23.303Z,7.70
2018-09-01T03:31:23.316Z,8.70
2018-09-01T03:32:23.329Z,6.00
2018-09-01T03:33:23.343Z,6.70
2018-09-01T03:34:23.355Z,7.10
2018-09-01T03:35:23.375Z,6.30
2018-09-01T03:36:23.386Z,8.50
2018-09-01T03:37:23.399Z,8.10
2018-09-01T03:38:23.416Z,8.20
2018-09-01T03:39:23.427Z,9.10
2018-09-01T03:40:23.449Z,7.30
2018-09-01T03:41:23.451Z,6.80
2018-09-01T03:42:23.465Z,7.60
2018-09-01T03:43:23.493Z,7.70
2018-09-01T03:44:23.571Z,6.30
2018-09-01T03:45:23.571Z,9.00
2018-09-01T03:46:23.524Z,9.90
2018-09-01T03:47:23.531Z,8.80
2018-09-01T03:48:23.546Z,10.90
2018-09-01T03:49:23.580Z,6.90
2018-09-01T03:50:23.577Z,8.00
2018-09-01T03:51:23.584Z,7.20
2018-09-01T03:52:23.600Z,8.90
2018-09-01T03:53:23.613Z,7.70
2018-09-01T03:54:23.626Z,7.50
2018-09-01T03:55:23.642Z,8.70
2018-09-01T03:56:23.660Z,8.10
2018-09-01T03:57:23.671Z,7.70
2018-09-01T03:58:23.680Z,7.10
2018-09-01T03:59:23.703Z,8.50
2018-09-01T04:00:23.707Z,10.20
2018-09-01T04:01:23.725Z,7.90
2018-09-01T04:02:23.734Z,7.40
2018-09-01T04:03:23.750Z,7.10
2018-09-01T04:04:23.766Z,9.20
2018-09-01T04:05:23.776Z,8.50
2018-09-01T04:06:23.793Z,9.00
2018-09-01T04:07:23.801Z,8.60
2018-09-01T04:08:23.820Z,8.30
2018-09-01T04:09:23.831Z,6.90
2018-09-01T04:10:23.845Z,7.00
2018-09-01T04:11:23.857Z,7.70
2018-09-01T04:12:23.868Z,8.60
2018-09-01T04:13:23.883Z,8.00
2018-09-01T04:14:23.899Z,7.70
2018-09-01T04:15:23.909Z,9.80
2018-09-01T04:17:23.939Z,9.70
2018-09-01T04:18:23.949Z,10.60
2018-09-01T04:19:23.963Z,9.80
2018-09-01T04:20:23.977Z,7.80
2018-09-01T04:21:23.991Z,7.90
2018-09-01T04:22:24.003Z,8.40
2018-09-01T04:23:24.016Z,7.70
2018-09-01T04:24:24.035Z,6.70
2018-09-01T04:25:24.044Z,8.10
2018-09-01T04:26:24.060Z,7.90
2018-09-01T04:27:24.098Z,9.10
2018-09-01T04:28:24.113Z,6.60
2018-09-01T04:29:24.096Z,9.20
2018-09-01T04:30:24.110Z,9.20
2018-09-01T04:31:24.126Z,10.10
2018-09-01T04:32:24.137Z,8.40
2018-09-01T04:33:24.152Z,8.70
2018-09-01T04:34:24.169Z,9.30
2018-09-01T04:35:24.178Z,9.40
2018-09-01T04:36:24.192Z,7.20
2018-09-01T04:37:24.206Z,10.30
2018-09-01T04:38:24.217Z,8.20
2018-09-01T04:39:24.230Z,9.80
2018-09-01T04:40:24.272Z,7.50
2018-09-01T04:41:24.273Z,8.50
2018-09-01T04:42:24.283Z,10.10
2018-09-01T04:43:24.283Z,6.50
2018-09-01T04:44:24.296Z,8.00
2018-09-01T04:45:24.312Z,8.50
2018-09-01T04:46:24.332Z,7.40
2018-09-01T04:47:24.356Z,11.80
2018-09-01T04:48:24.350Z,9.00
2018-09-01T04:49:24.367Z,8.40
2018-09-01T04:50:24.379Z,7.60
2018-09-01T04:51:24.393Z,10.30
2018-09-01T04:52:24.405Z,8.20
2018-09-01T04:53:24.417Z,9.10
2018-09-01T04:54:24.432Z,7.90
2018-09-01T04:55:24.445Z,6.00
2018-09-01T04:56:24.460Z,8.90
2018-09-01T04:57:24.472Z,9.30
2018-09-01T04:58:24.487Z,8.20
2018-09-01T04:59:24.500Z,10.40
2018-09-01T05:00:24.510Z,9.30
2018-09-01T05:01:24.595Z,7.40
2018-09-01T05:02:24.537Z,7.70
2018-09-01T05:03:24.551Z,9.00
2018-09-01T05:04:24.564Z,11.40
2018-09-01T05:05:24.579Z,8.60
2018-09-01T05:06:24.593Z,7.80
2018-09-01T05:07:24.610Z,9.30
2018-09-01T05:08:24.616Z,8.70
2018-09-01T05:09:24.631Z,9.40
2018-09-01T05:10:24.643Z,11.10
2018-09-01T05:11:24.661Z,8.80
2018-09-01T05:12:24.675Z,7.90
2018-09-01T05:13:24.690Z,7.70
2018-09-01T05:14:24.696Z,10.90
2018-09-01T05:15:24.721Z,10.90
2018-09-01T05:16:24.728Z,10.70
2018-09-01T05:17:24.736Z,10.40
2018-09-01T05:18:24.753Z,8.00
2018-09-01T05:19:24.764Z,9.50
2018-09-01T05:20:24.796Z,7.70
2018-09-01T05:21:24.790Z,11.20
2018-09-01T05:22:24.805Z,8.30
2018-09-01T05:23:24.818Z,6.70
2018-09-01T05:24:24.833Z,9.00
2018-09-01T05:25:24.844Z,11.50
2018-09-01T05:26:24.860Z,7.70
2018-09-01T05:27:24.869Z,10.70
2018-09-01T05:28:24.888Z,10.20
2018-09-01T05:29:24.899Z,8.50
2018-09-01T05:30:24.911Z,9.70
2018-09-01T05:31:24.934Z,10.20
2018-09-01T05:32:24.965Z,9.60
2018-09-01T05:33:24.958Z,9.90
2018-09-01T05:34:24.964Z,7.90
2018-09-01T05:35:24.981Z,9.90
2018-09-01T05:36:25.004Z,9.80
2018-09-01T05:37:25.005Z,9.10
2018-09-01T05:38:25.021Z,13.20
2018-09-01T05:39:25.041Z,11.30
2018-09-01T05:40:25.044Z,9.60
2018-09-01T05:41:25.058Z,8.10
2018-09-01T05:42:25.071Z,11.30
2018-09-01T05:43:25.084Z,8.20
2018-09-01T05:44:25.096Z,11.00
2018-09-01T05:45:25.111Z,8.40
2018-09-01T05:46:25.127Z,9.00
2018-09-01T05:47:25.140Z,10.00
2018-09-01T05:48:25.151Z,10.20
2018-09-01T05:49:25.165Z,8.50
2018-09-01T05:50:25.175Z,11.70
2018-09-01T05:51:25.195Z,9.10
2018-09-01T05:52:25.226Z,9.70
2018-09-01T05:53:25.235Z,12.10
2018-09-01T05:54:25.234Z,8.40
2018-09-01T05:55:25.305Z,12.20
2018-09-01T05:56:25.261Z,9.80
2018-09-01T05:57:25.296Z,11.30
2018-09-01T05:58:25.286Z,10.10
2018-09-01T05:59:25.299Z,9.70
2018-09-01T06:00:25.374Z,8.90
2018-09-01T06:01:25.328Z,13.90
2018-09-01T06:02:25.373Z,9.00
2018-09-01T06:03:25.356Z,9.30
2018-09-01T06:04:25.370Z,9.30
2018-09-01T06:05:25.404Z,7.40
2018-09-01T06:06:25.504Z,9.40
2018-09-01T06:07:25.413Z,8.60
2018-09-01T06:08:25.424Z,8.00
2018-09-01T06:09:25.440Z,9.50
2018-09-01T06:10:25.449Z,9.30
2018-09-01T06:11:25.468Z,13.70
2018-09-01T06:12:25.479Z,12.90
2018-09-01T06:13:25.489Z,10.50
2018-09-01T06:14:25.506Z,8.80
2018-09-01T06:15:25.515Z,8.30
2018-09-01T06:16:25.531Z,8.90
2018-09-01T06:17:25.555Z,7.30
2018-09-01T06:18:25.556Z,11.00
2018-09-01T06:19:25.573Z,9.80
2018-09-01T06:20:25.586Z,8.00
2018-09-01T06:21:25.601Z,9.30
2018-09-01T06:22:25.619Z,9.60
2018-09-01T06:23:25.639Z,8.20
2018-09-01T06:24:25.641Z,8.70
2018-09-01T06:25:25.657Z,8.40
2018-09-01T06:26:25.667Z,9.50
2018-09-01T06:27:25.690Z,7.80
2018-09-01T06:28:25.701Z,8.10
2018-09-01T06:29:25.712Z,7.60
2018-09-01T06:30:25.724Z,9.80
2018-09-01T06:31:25.734Z,8.50
2018-09-01T06:32:25.754Z,10.30
2018-09-01T06:33:25.761Z,10.20
2018-09-01T06:34:25.791Z,9.40
2018-09-01T06:35:25.994Z,11.90
2018-09-01T06:36:25.803Z,8.60
2018-09-01T06:37:25.858Z,9.60
2018-09-01T06:38:25.835Z,9.30
2018-09-01T06:39:25.843Z,8.90
2018-09-01T06:40:25.856Z,11.10
2018-09-01T06:41:25.871Z,12.20
2018-09-01T06:42:25.885Z,7.70
2018-09-01T06:43:25.900Z,9.00
2018-09-01T06:44:25.912Z,8.00
2018-09-01T06:45:25.929Z,9.60
2018-09-01T06:46:25.943Z,10.40
2018-09-01T06:47:25.956Z,6.10
2018-09-01T06:48:25.967Z,8.80
2018-09-01T06:49:26.043Z,11.30
2018-09-01T06:50:26.045Z,7.30
2018-09-01T06:51:26.059Z,9.30
2018-09-01T06:52:26.024Z,8.50
2018-09-01T06:53:26.043Z,7.80
2018-09-01T06:54:26.050Z,8.90
2018-09-01T06:55:26.082Z,8.30
2018-09-01T06:56:26.097Z,8.00
2018-09-01T06:57:26.091Z,7.70
2018-09-01T06:58:26.108Z,6.70
2018-09-01T06:59:26.247Z,8.10
2018-09-01T07:00:26.164Z,7.00
2018-09-01T07:01:26.151Z,6.60
2018-09-01T07:02:26.161Z,6.20
2018-09-01T07:03:26.176Z,6.20
2018-09-01T07:04:26.189Z,5.80
2018-09-01T07:05:26.204Z,7.70
2018-09-01T07:06:26.217Z,7.30
2018-09-01T07:07:26.246Z,6.90
2018-09-01T07:08:26.245Z,6.80
2018-09-01T07:09:26.259Z,6.30
2018-09-01T07:10:26.279Z,5.40
2018-09-01T07:11:26.285Z,8.30
2018-09-01T07:12:26.304Z,6.50
2018-09-01T07:13:26.312Z,7.20
2018-09-01T07:14:26.329Z,8.40
2018-09-01T07:15:26.345Z,6.50
2018-09-01T07:16:26.357Z,8.30
2018-09-01T07:17:26.368Z,7.20
2018-09-01T07:18:26.378Z,7.50
2018-09-01T07:19:26.389Z,6.20
2018-09-01T07:20:26.408Z,8.90
2018-09-01T07:21:26.417Z,6.90
2018-09-01T07:22:26.429Z,5.10
2018-09-01T07:23:26.443Z,5.40
2018-09-01T07:24:26.460Z,5.90
2018-09-01T07:25:26.477Z,6.40
2018-09-01T07:26:26.587Z,7.90
2018-09-01T07:27:26.504Z,6.50
2018-09-01T07:28:26.517Z,7.00
2018-09-01T07:29:26.533Z,8.40
2018-09-01T07:30:26.707Z,6.90
2018-09-01T07:31:26.949Z,5.60
2018-09-01T07:32:26.588Z,6.00
2018-09-01T07:33:26.589Z,6.40
2018-09-01T07:34:26.599Z,6.60
2018-09-01T07:35:26.612Z,9.30
2018-09-01T07:36:26.627Z,7.10
2018-09-01T07:37:26.653Z,5.70
2018-09-01T07:38:26.654Z,8.40
2018-09-01T07:39:26.670Z,6.80
2018-09-01T07:40:26.684Z,6.70
2018-09-01T07:41:26.700Z,8.00
2018-09-01T07:42:26.711Z,5.60
2018-09-01T07:43:26.732Z,5.70
2018-09-01T07:44:26.739Z,7.00
2018-09-01T07:45:26.755Z,7.50
2018-09-01T07:46:26.771Z,5.00
2018-09-01T07:47:26.785Z,4.60
2018-09-01T07:48:26.801Z,7.10
2018-09-01T07:49:26.811Z,4.70
2018-09-01T07:50:26.824Z,5.50
2018-09-01T07:51:26.850Z,5.40
2018-09-01T07:52:26.853Z,6.00
2018-09-01T07:53:26.867Z,6.40
2018-09-01T07:54:26.884Z,5.20
2018-09-01T07:55:26.904Z,5.80
2018-09-01T07:56:26.918Z,5.90
2018-09-01T07:57:26.929Z,4.60
2018-09-01T07:58:26.959Z,7.70
2018-09-01T07:59:27.261Z,5.70
2018-09-01T08:00:26.971Z,5.00
2018-09-01T08:01:26.982Z,6.60
2018-09-01T08:02:26.996Z,4.50
2018-09-01T08:03:27.014Z,5.80
2018-09-01T08:04:27.028Z,6.70
2018-09-01T08:05:27.042Z,6.30
2018-09-01T08:06:27.054Z,6.60
2018-09-01T08:07:27.119Z,6.00
2018-09-01T08:08:27.080Z,4.80
2018-09-01T08:09:27.094Z,6.50
2018-09-01T08:10:27.109Z,5.40
2018-09-01T08:11:27.126Z,6.80
2018-09-01T08:12:27.138Z,6.70
2018-09-01T08:13:27.155Z,6.70
2018-09-01T08:14:27.207Z,8.70
2018-09-01T08:15:27.181Z,8.40
2018-09-01T08:16:27.196Z,6.50
2018-09-01T08:17:27.215Z,7.00
2018-09-01T08:18:27.223Z,4.40
2018-09-01T08:19:27.238Z,4.80
2018-09-01T08:20:27.252Z,4.70
2018-09-01T08:21:27.267Z,6.70
2018-09-01T08:22:27.825Z,5.90
2018-09-01T08:23:27.294Z,4.60
2018-09-01T08:24:27.311Z,4.50
2018-09-01T08:25:27.326Z,4.90
2018-09-01T08:26:27.340Z,5.50
2018-09-01T08:27:27.377Z,6.60
2018-09-01T08:28:27.380Z,5.10
2018-09-01T08:29:27.382Z,6.00
2018-09-01T08:30:27.400Z,7.90
2018-09-01T08:31:27.422Z,5.50
2018-09-01T08:32:27.430Z,5.20
2018-09-01T08:33:27.492Z,4.00
2018-09-01T08:34:27.456Z,4.50
2018-09-01T08:35:27.468Z,5.20
2018-09-01T08:36:27.487Z,5.10
2018-09-01T08:37:27.530Z,3.30
2018-09-01T08:38:27.536Z,6.20
2018-09-01T08:39:27.528Z,5.50
2018-09-01T08:40:27.541Z,4.70
2018-09-01T08:41:27.558Z,7.30
2018-09-01T08:42:27.575Z,7.50
2018-09-01T08:43:27.586Z,6.00
2018-09-01T08:44:27.599Z,6.20
2018-09-01T08:45:27.713Z,5.90
2018-09-01T08:46:27.631Z,4.70
2018-09-01T08:47:27.652Z,4.50
2018-09-01T08:48:27.658Z,4.80
2018-09-01T08:49:27.680Z,4.60
2018-09-01T08:50:27.696Z,7.40
2018-09-01T08:51:27.706Z,4.30
2018-09-01T08:52:27.717Z,5.10
2018-09-01T08:53:27.735Z,7.20
2018-09-01T08:54:27.751Z,4.60
2018-09-01T08:55:27.757Z,5.00
2018-09-01T08:56:27.815Z,4.70
2018-09-01T08:57:27.790Z,6.20
2018-09-01T08:58:27.804Z,4.90
2018-09-01T08:59:27.820Z,6.30
2018-09-01T09:00:28.001Z,4.90
2018-09-01T09:01:27.854Z,4.60
2018-09-01T09:02:27.863Z,6.00
2018-09-01T09:03:27.876Z,5.10
2018-09-01T09:04:27.899Z,5.40
2018-09-01T09:05:27.951Z,3.90
2018-09-01T09:06:27.923Z,4.20
2018-09-01T09:07:27.945Z,4.80
2018-09-01T09:08:27.951Z,5.20
2018-09-01T09:09:28.008Z,5.80
2018-09-01T09:10:27.993Z,7.30
2018-09-01T09:11:28.002Z,3.70
2018-09-01T09:12:28.008Z,5.30
2018-09-01T09:13:28.029Z,4.60
2018-09-01T09:14:28.049Z,3.90
2018-09-01T09:15:28.054Z,3.10
2018-09-01T09:16:28.075Z,4.40
2018-09-01T09:17:28.088Z,5.10
2018-09-01T09:18:28.141Z,2.80
2018-09-01T09:19:28.112Z,5.60
2018-09-01T09:20:28.152Z,3.60
2018-09-01T09:21:28.486Z,3.80
2018-09-01T09:22:28.157Z,5.80
2018-09-01T09:23:28.179Z,5.70
2018-09-01T09:25:28.212Z,3.30
2018-09-01T09:26:28.413Z,3.90
2018-09-01T09:27:28.233Z,3.00
2018-09-01T09:28:28.256Z,3.30
2018-09-01T09:29:28.262Z,5.30
2018-09-01T09:30:28.284Z,5.70
2018-09-01T09:31:28.345Z,6.50
2018-09-01T09:32:28.325Z,4.30
2018-09-01T09:33:28.321Z,3.70
2018-09-01T09:34:28.392Z,5.80
2018-09-01T09:35:28.353Z,3.20
2018-09-01T09:36:28.560Z,3.80
2018-09-01T09:37:28.383Z,4.20
2018-09-01T09:38:28.393Z,4.30
2018-09-01T09:39:28.413Z,4.40
2018-09-01T09:40:28.420Z,4.40
2018-09-01T09:41:28.531Z,5.30
2018-09-01T09:42:28.448Z,3.90
2018-09-01T09:43:28.461Z,3.60
2018-09-01T09:44:28.533Z,3.10
2018-09-01T09:45:28.493Z,4.10
2018-09-01T09:46:28.575Z,5.60
2018-09-01T09:47:28.521Z,5.20
2018-09-01T09:48:29.205Z,4.20
2018-09-01T09:49:28.553Z,4.80
2018-09-01T09:50:28.567Z,4.10
2018-09-01T09:51:28.581Z,4.90
2018-09-01T09:52:28.603Z,3.70
2018-09-01T09:53:28.623Z,4.30
2018-09-01T09:54:28.625Z,4.90
2018-09-01T09:55:28.639Z,5.70
2018-09-01T09:56:28.707Z,4.50
2018-09-01T09:57:28.702Z,6.30
2018-09-01T09:58:28.687Z,6.20
2018-09-01T09:59:28.701Z,6.40
2018-09-01T10:00:28.716Z,7.30
2018-09-01T10:01:28.730Z,3.50
2018-09-01T10:02:28.852Z,4.50
2018-09-01T10:03:28.769Z,4.80
2018-09-01T10:04:28.775Z,4.60
2018-09-01T10:05:28.848Z,2.50
2018-09-01T10:06:28.805Z,5.00
2018-09-01T10:07:28.819Z,3.00
2018-09-01T10:08:28.834Z,4.50
2018-09-01T10:09:28.854Z,4.20
2018-09-01T10:10:28.863Z,5.50
2018-09-01T10:11:28.978Z,6.50
2018-09-01T10:12:28.896Z,5.40
2018-09-01T10:13:28.911Z,5.40
2018-09-01T10:14:28.922Z,4.70
2018-09-01T10:15:28.940Z,5.60
2018-09-01T10:16:28.952Z,4.60
2018-09-01T10:17:28.968Z,5.00
2018-09-01T10:18:28.986Z,7.60
2018-09-01T10:19:29.013Z,4.70
2018-09-01T10:20:29.074Z,5.90
2018-09-01T10:21:29.027Z,2.90
2018-09-01T10:22:29.042Z,3.50
2018-09-01T10:23:29.060Z,4.80
2018-09-01T10:24:29.073Z,4.90
2018-09-01T10:25:29.087Z,4.20
2018-09-01T10:26:29.101Z,5.40
2018-09-01T10:27:29.133Z,5.20
2018-09-01T10:28:29.132Z,4.30
2018-09-01T10:29:29.173Z,3.40
2018-09-01T10:30:29.177Z,5.20
2018-09-01T10:31:29.179Z,5.40
2018-09-01T10:32:29.190Z,3.40
2018-09-01T10:33:29.220Z,2.60
2018-09-01T10:34:29.224Z,5.10
2018-09-01T10:35:29.241Z,4.30
2018-09-01T10:36:29.252Z,6.00
2018-09-01T10:37:29.295Z,3.00
2018-09-01T10:38:29.310Z,4.70
2018-09-01T10:39:29.297Z,5.40
2018-09-01T10:40:29.316Z,5.10
2018-09-01T10:41:29.334Z,3.80
2018-09-01T10:42:29.343Z,4.80
2018-09-01T10:43:29.364Z,4.40
2018-09-01T10:44:29.378Z,7.60
2018-09-01T10:45:29.388Z,3.80
2018-09-01T10:46:29.402Z,3.80
2018-09-01T10:47:29.418Z,4.50
2018-09-01T10:48:29.434Z,3.10
2018-09-01T10:49:29.449Z,3.40
2018-09-01T10:50:29.463Z,2.80
2018-09-01T10:51:29.499Z,4.80
2018-09-01T10:52:29.537Z,3.70
2018-09-01T10:53:29.513Z,3.70
2018-09-01T10:54:29.572Z,3.60
2018-09-01T10:55:29.555Z,5.50
2018-09-01T10:56:29.557Z,4.10
2018-09-01T10:57:29.569Z,5.30
2018-09-01T10:58:29.586Z,3.50
2018-09-01T10:59:29.737Z,4.10
2018-09-01T11:00:29.620Z,3.80
2018-09-01T11:01:29.632Z,5.00
2018-09-01T11:02:29.646Z,5.10
2018-09-01T11:03:29.659Z,3.30
2018-09-01T11:04:29.674Z,2.70
2018-09-01T11:05:29.696Z,4.90
2018-09-01T11:06:29.706Z,4.40
2018-09-01T11:07:29.719Z,2.90
2018-09-01T11:08:29.740Z,3.70
2018-09-01T11:09:29.853Z,3.10
2018-09-01T11:10:29.764Z,4.10
2018-09-01T11:11:29.780Z,2.80
2018-09-01T11:12:29.795Z,4.80
2018-09-01T11:13:29.816Z,5.10
2018-09-01T11:14:29.826Z,3.10
2018-09-01T11:15:29.848Z,4.20
2018-09-01T11:16:29.857Z,4.00
2018-09-01T11:17:29.881Z,4.70
2018-09-01T11:18:29.887Z,2.80
2018-09-01T11:19:29.907Z,3.30
2018-09-01T11:20:29.920Z,6.00
2018-09-01T11:21:29.938Z,4.80
2018-09-01T11:22:29.949Z,2.60
2018-09-01T11:23:29.965Z,3.40
2018-09-01T11:24:29.978Z,3.40
2018-09-01T11:25:29.994Z,2.40
2018-09-01T11:26:30.209Z,3.30
2018-09-01T11:27:30.080Z,4.30
2018-09-01T11:28:30.041Z,5.00
2018-09-01T11:29:30.171Z,5.00
2018-09-01T11:30:30.112Z,4.20
2018-09-01T11:31:30.087Z,3.80
2018-09-01T11:32:30.118Z,4.20
2018-09-01T11:33:30.115Z,4.20
2018-09-01T11:34:30.253Z,3.10
2018-09-01T11:35:30.152Z,4.10
2018-09-01T11:36:30.164Z,3.80
2018-09-01T11:37:30.177Z,3.20
2018-09-01T11:38:30.194Z,3.40
2018-09-01T11:39:30.210Z,3.30
2018-09-01T11:40:30.233Z,4.00
2018-09-01T11:41:30.263Z,3.40
2018-09-01T11:42:30.347Z,3.20
2018-09-01T11:43:30.273Z,3.30
2018-09-01T11:44:30.289Z,3.80
2018-09-01T11:45:30.308Z,3.40
2018-09-01T11:46:30.315Z,2.90
2018-09-01T11:47:30.334Z,3.70
2018-09-01T11:48:30.373Z,4.60
2018-09-01T11:49:30.364Z,3.10
2018-09-01T11:50:30.381Z,5.80
2018-09-01T11:51:30.394Z,3.00
2018-09-01T11:52:30.425Z,4.30
2018-09-01T11:53:30.452Z,5.20
2018-09-01T11:54:30.451Z,3.30
2018-09-01T11:55:30.465Z,5.30
2018-09-01T11:56:30.496Z,4.50
2018-09-01T11:57:30.799Z,4.40
2018-09-01T11:58:30.509Z,4.80
2018-09-01T11:59:30.519Z,3.90
2018-09-01T12:00:30.535Z,3.50
2018-09-01T12:01:30.581Z,4.60
2018-09-01T12:02:30.566Z,3.10
2018-09-01T12:03:30.585Z,3.20
2018-09-01T12:04:30.597Z,4.10
2018-09-01T12:05:30.629Z,4.10
2018-09-01T12:06:30.625Z,4.30
2018-09-01T12:07:30.641Z,3.80
2018-09-01T12:08:30.665Z,3.70
2018-09-01T12:09:30.679Z,3.50
2018-09-01T12:10:30.688Z,4.60
2018-09-01T12:11:30.735Z,5.10
2018-09-01T12:12:30.720Z,4.10
2018-09-01T12:13:30.734Z,5.30
2018-09-01T12:14:30.753Z,3.60
2018-09-01T12:15:30.769Z,4.00
2018-09-01T12:16:30.781Z,3.60
2018-09-01T12:17:30.802Z,3.40
2018-09-01T12:18:30.811Z,4.10
2018-09-01T12:19:31.040Z,5.00
2018-09-01T12:20:30.847Z,3.70
2018-09-01T12:21:30.888Z,4.50
2018-09-01T12:22:30.876Z,3.10
2018-09-01T12:23:30.891Z,5.40
2018-09-01T12:24:30.907Z,2.90
2018-09-01T12:25:31.058Z,3.70
2018-09-01T12:26:30.936Z,2.70
2018-09-01T12:27:30.950Z,7.10
2018-09-01T12:28:30.986Z,3.70
2018-09-01T12:29:30.984Z,3.50
2018-09-01T12:30:31.029Z,3.60
2018-09-01T12:31:31.016Z,4.80
2018-09-01T12:32:31.037Z,5.30
2018-09-01T12:33:31.060Z,4.30
2018-09-01T12:34:31.060Z,4.50
2018-09-01T12:35:31.095Z,5.00
2018-09-01T12:36:31.095Z,2.70
2018-09-01T12:37:31.117Z,4.00
2018-09-01T12:38:31.432Z,4.30
2018-09-01T12:39:31.142Z,3.70
2018-09-01T12:40:31.157Z,3.10
2018-09-01T12:41:31.175Z,3.10
2018-09-01T12:42:31.184Z,4.30
2018-09-01T12:43:31.200Z,4.10
2018-09-01T12:44:31.217Z,4.30
2018-09-01T12:45:31.236Z,3.30
2018-09-01T12:46:31.253Z,3.10
2018-09-01T12:47:31.633Z,5.20
2018-09-01T12:48:31.287Z,5.80
2018-09-01T12:49:31.318Z,3.70
2018-09-01T12:50:31.346Z,5.10
2018-09-01T12:51:31.487Z,3.60
2018-09-01T12:52:31.344Z,3.40
2018-09-01T12:53:31.361Z,4.90
2018-09-01T12:54:31.375Z,5.10
2018-09-01T12:55:31.397Z,5.50
2018-09-01T12:56:31.411Z,5.30
2018-09-01T12:57:31.432Z,2.80
2018-09-01T12:58:31.440Z,5.10
2018-09-01T12:59:31.461Z,5.50
2018-09-01T13:00:31.523Z,3.90
2018-09-01T13:01:31.489Z,5.30
2018-09-01T13:02:31.505Z,6.20
2018-09-01T13:03:31.524Z,7.00
2018-09-01T13:04:31.547Z,6.00
2018-09-01T13:05:31.561Z,4.50
2018-09-01T13:06:31.600Z,4.90
2018-09-01T13:07:31.588Z,4.30
2018-09-01T13:08:31.602Z,3.60
2018-09-01T13:09:31.631Z,3.30
2018-09-01T13:10:31.637Z,3.00
2018-09-01T13:11:31.651Z,4.30
2018-09-01T13:12:31.663Z,3.30
2018-09-01T13:13:31.678Z,4.70
2018-09-01T13:14:31.711Z,5.50
2018-09-01T13:15:31.717Z,5.50
2018-09-01T13:16:31.726Z,4.00
2018-09-01T13:17:31.744Z,5.70
2018-09-01T13:18:31.757Z,5.00
2018-09-01T13:19:31.786Z,4.50